Time;durP1;ratioP1;P1;durP2;ratioP2;P2;SDS_P1;SDS_P2;PMS_P1;PMS_P2;Temp;Humidity;BMP_temperature;BMP_pressure;BME280_temperature;BME280_humidity;BME280_pressure;Samples;Min_cycle;Max_cycle;Signal;HPM_P1;HPM_P2
2023/03/01 00:00:10;;;;;;;;;17.50;16.50;;;;;;;;5171973;27;13388;-70
2023/03/01 00:02:36;;;;;;;;;19.00;14.50;;;;;;;;5152974;27;14337;-70
2023/03/01 00:05:01;;;;;;;;;26.25;20.00;;;;;;;;5171998;27;14161;-70
2023/03/01 00:07:27;;;;;;;;;18.00;14.50;;;;;;;;5171800;27;13426;-70
2023/03/01 00:09:52;;;;;;;;;17.00;11.25;;;;;;;;5171691;27;13467;-70
2023/03/01 00:12:17;;;;;;;;;13.33;12.00;;;;;;;;5171765;27;13501;-70
2023/03/01 00:14:42;;;;;;;;;16.00;16.00;;;;;;;;5171755;27;13360;-69
2023/03/01 00:17:08;;;;;;;;;16.00;16.00;;;;;;;;5171739;27;13387;-69
2023/03/01 00:19:33;;;;;;;;;15.75;14.50;;;;;;;;5152815;27;13388;-69
2023/03/01 00:21:58;;;;;;;;;16.00;15.50;;;;;;;;5171776;27;13336;-70
2023/03/01 00:24:23;;;;;;;;;17.00;14.00;;;;;;;;5152846;27;14134;-69
2023/03/01 00:26:52;;;;;;;;;14.00;13.00;;;;;;;;5171523;27;13362;-70
2023/03/01 00:29:17;;;;;;;;;14.20;12.20;;;;;;;;5171446;27;14271;-70
2023/03/01 00:31:42;;;;;;;;;15.33;13.67;;;;;;;;5172056;27;13454;-70
2023/03/01 00:34:09;;;;;;;;;17.67;13.33;;;;;;;;5171457;27;14158;-70
2023/03/01 00:36:35;;;;;;;;;16.20;13.00;;;;;;;;5171388;27;13462;-69
2023/03/01 00:39:01;;;;;;;;;13.00;10.20;;;;;;;;5171386;27;13991;-70
2023/03/01 00:41:26;;;;;;;;;15.25;14.50;;;;;;;;5152732;27;13339;-70
2023/03/01 00:43:52;;;;;;;;;17.00;13.00;;;;;;;;5170862;27;13605;-70
2023/03/01 00:46:19;;;;;;;;;14.75;14.75;;;;;;;;5171382;27;13367;-70
2023/03/01 00:48:44;;;;;;;;;14.50;14.00;;;;;;;;5171347;27;13469;-69
2023/03/01 00:51:20;;;;;;;;;16.50;13.00;;;;;;;;5170886;27;13373;-70
2023/03/01 00:53:46;;;;;;;;;12.00;12.00;;;;;;;;5171113;27;13288;-69
2023/03/01 00:56:13;;;;;;;;;12.00;12.00;;;;;;;;5152415;27;13414;-69
2023/03/01 00:58:39;;;;;;;;;22.40;18.80;;;;;;;;5171042;27;13343;-70
2023/03/01 01:01:18;;;;;;;;;13.00;11.60;;;;;;;;5170952;27;14124;-70
2023/03/01 01:03:52;;;;;;;;;14.00;14.00;;;;;;;;5171069;27;13484;-69
2023/03/01 01:06:18;;;;;;;;;10.50;10.00;;;;;;;;5169795;27;13485;-69
2023/03/01 01:08:44;;;;;;;;;15.80;10.00;;;;;;;;5170777;27;14180;-70
2023/03/01 01:11:11;;;;;;;;;13.00;12.75;;;;;;;;5170789;27;13306;-69
2023/03/01 01:13:37;;;;;;;;;15.25;14.75;;;;;;;;5170739;27;13386;-69
2023/03/01 01:16:02;;;;;;;;;14.75;10.25;;;;;;;;5170548;27;13334;-69
2023/03/01 01:18:28;;;;;;;;;15.50;12.50;;;;;;;;5170713;27;13298;-69
2023/03/01 01:20:53;;;;;;;;;11.00;11.00;;;;;;;;5170683;27;14075;-69
2023/03/01 01:23:18;;;;;;;;;13.00;13.00;;;;;;;;5170452;27;13349;-69
2023/03/01 01:25:44;;;;;;;;;12.50;12.50;;;;;;;;5170391;27;13496;-69
2023/03/01 01:28:09;;;;;;;;;15.67;12.33;;;;;;;;5170463;27;13370;-69
2023/03/01 01:30:34;;;;;;;;;15.00;13.00;;;;;;;;5170487;27;14097;-69
2023/03/01 01:33:00;;;;;;;;;15.33;10.67;;;;;;;;5170888;27;13384;-69
2023/03/01 01:35:25;;;;;;;;;13.00;13.00;;;;;;;;5151732;27;13335;-69
2023/03/01 01:37:51;;;;;;;;;13.50;11.75;;;;;;;;5170216;27;13423;-69
2023/03/01 01:40:16;;;;;;;;;12.50;9.50;;;;;;;;5170267;27;13492;-69
2023/03/01 01:42:41;;;;;;;;;13.67;12.00;;;;;;;;5169997;27;13422;-69
2023/03/01 01:45:25;;;;;;;;;14.33;11.00;;;;;;;;5170300;27;13409;-69
2023/03/01 01:47:52;;;;;;;;;12.75;12.25;;;;;;;;5170100;27;13335;-69
2023/03/01 01:50:18;;;;;;;;;14.20;11.60;;;;;;;;5170103;27;13456;-69
2023/03/01 01:52:44;;;;;;;;;10.60;8.00;;;;;;;;5170107;27;13362;-69
2023/03/01 01:55:11;;;;;;;;;16.60;12.00;;;;;;;;5169983;27;13402;-69
2023/03/01 01:57:40;;;;;;;;;8.25;8.25;;;;;;;;5169970;27;13345;-69
2023/03/01 02:00:10;;;;;;;;;14.25;9.75;;;;;;;;5169846;27;14043;-69
2023/03/01 02:02:36;;;;;;;;;11.00;11.00;;;;;;;;5169610;27;13355;-69
2023/03/01 02:05:09;;;;;;;;;15.50;12.00;;;;;;;;5169866;27;13404;-69
2023/03/01 02:07:36;;;;;;;;;10.00;10.00;;;;;;;;5169798;27;13339;-69
2023/03/01 02:10:02;;;;;;;;;16.75;13.00;;;;;;;;5169665;27;13443;-69
2023/03/01 02:12:28;;;;;;;;;10.67;9.33;;;;;;;;5169445;27;14280;-72
2023/03/01 02:14:53;;;;;;;;;15.25;12.00;;;;;;;;5169747;27;13292;-68
2023/03/01 02:17:19;;;;;;;;;12.25;10.50;;;;;;;;5169295;27;13341;-69
2023/03/01 02:19:53;;;;;;;;;12.50;11.00;;;;;;;;5150630;27;13296;-69
2023/03/01 02:22:27;;;;;;;;;13.60;9.00;;;;;;;;5169279;27;13403;-69
2023/03/01 02:25:11;;;;;;;;;8.40;8.40;;;;;;;;5169334;27;13323;-69
2023/03/01 02:27:40;;;;;;;;;9.75;9.25;;;;;;;;5169899;27;13317;-69
2023/03/01 02:30:07;;;;;;;;;12.50;12.50;;;;;;;;5169583;27;14101;-68
2023/03/01 02:32:33;;;;;;;;;9.40;8.20;;;;;;;;5150299;27;14131;-69
2023/03/01 02:34:58;;;;;;;;;12.25;8.25;;;;;;;;5169262;27;13294;-69
2023/03/01 02:37:25;;;;;;;;;13.00;10.00;;;;;;;;5169203;27;13329;-69
2023/03/01 02:39:54;;;;;;;;;19.20;12.40;;;;;;;;5169122;27;13371;-68
2023/03/01 02:42:23;;;;;;;;;10.00;10.00;;;;;;;;5169070;27;13411;-69
2023/03/01 02:44:49;;;;;;;;;11.75;11.75;;;;;;;;5169336;27;13389;-68
2023/03/01 02:47:15;;;;;;;;;15.50;10.75;;;;;;;;5169292;27;13342;-69
2023/03/01 02:49:40;;;;;;;;;7.50;5.75;;;;;;;;5169182;27;14093;-69
2023/03/01 02:52:05;;;;;;;;;7.33;7.33;;;;;;;;5150479;27;13313;-69
2023/03/01 02:54:38;;;;;;;;;8.50;8.00;;;;;;;;5169193;27;13420;-69
2023/03/01 02:57:03;;;;;;;;;8.00;8.00;;;;;;;;5169442;27;13649;-69
2023/03/01 02:59:31;;;;;;;;;8.33;8.00;;;;;;;;5169270;27;13256;-69
2023/03/01 03:01:56;;;;;;;;;9.40;8.00;;;;;;;;5169088;27;13183;-69
2023/03/01 03:04:22;;;;;;;;;6.33;6.33;;;;;;;;5168974;27;13392;-69
2023/03/01 03:06:48;;;;;;;;;8.50;8.00;;;;;;;;5169392;27;13317;-69
2023/03/01 03:09:14;;;;;;;;;10.50;7.50;;;;;;;;5169059;27;13275;-69
2023/03/01 03:11:41;;;;;;;;;7.00;7.00;;;;;;;;5169120;27;13304;-70
2023/03/01 03:14:12;;;;;;;;;12.00;9.00;;;;;;;;5169167;27;13383;-69
2023/03/01 03:16:37;;;;;;;;;12.00;12.00;;;;;;;;5169202;27;13206;-69
2023/03/01 03:19:04;;;;;;;;;8.25;8.25;;;;;;;;5168952;27;14160;-69
2023/03/01 03:21:33;;;;;;;;;8.75;6.50;;;;;;;;5169011;27;13293;-69
2023/03/01 03:23:58;;;;;;;;;8.00;5.00;;;;;;;;5169051;27;13386;-69
2023/03/01 03:26:24;;;;;;;;;8.00;7.00;;;;;;;;5169019;27;13292;-69
2023/03/01 03:28:49;;;;;;;;;6.75;6.75;;;;;;;;5168902;27;13372;-69
2023/03/01 03:31:14;;;;;;;;;9.00;9.00;;;;;;;;5172742;27;13286;-69
2023/03/01 03:33:39;;;;;;;;;5.00;5.00;;;;;;;;5172730;27;13390;-69
2023/03/01 03:36:05;;;;;;;;;8.00;8.00;;;;;;;;5172937;27;13250;-69
2023/03/01 03:38:30;;;;;;;;;6.00;4.00;;;;;;;;5172688;27;13979;-69
2023/03/01 03:41:02;;;;;;;;;6.50;4.00;;;;;;;;5172826;27;13267;-69
2023/03/01 03:43:28;;;;;;;;;5.00;4.00;;;;;;;;5172486;27;13396;-68
2023/03/01 03:45:53;;;;;;;;;5.20;5.20;;;;;;;;5172649;27;13289;-68
2023/03/01 03:48:19;;;;;;;;;11.25;8.00;;;;;;;;5153660;27;13283;-68
2023/03/01 03:50:51;;;;;;;;;6.50;4.75;;;;;;;;5172673;27;13488;-68
2023/03/01 03:53:16;;;;;;;;;6.00;6.00;;;;;;;;5153745;27;13430;-69
2023/03/01 03:55:42;;;;;;;;;2.00;2.00;;;;;;;;5172615;27;14109;-69
2023/03/01 03:58:08;;;;;;;;;5.75;5.25;;;;;;;;5172241;27;13926;-69
2023/03/01 04:00:34;;;;;;;;;5.60;3.20;;;;;;;;5172373;27;13263;-69
2023/03/01 04:03:00;;;;;;;;;11.50;5.00;;;;;;;;5172264;27;14091;-68
2023/03/01 04:05:26;;;;;;;;;4.25;4.25;;;;;;;;5172511;27;13312;-69
2023/03/01 04:08:00;;;;;;;;;6.00;4.00;;;;;;;;5172194;27;13272;-68
2023/03/01 04:10:26;;;;;;;;;4.25;4.25;;;;;;;;5172284;27;13315;-68
2023/03/01 04:12:52;;;;;;;;;5.00;5.00;;;;;;;;5172103;27;14075;-69
2023/03/01 04:15:17;;;;;;;;;5.25;4.75;;;;;;;;5172235;27;13366;-68
2023/03/01 04:17:44;;;;;;;;;5.00;5.00;;;;;;;;5172481;27;13271;-69
2023/03/01 04:20:10;;;;;;;;;6.00;6.00;;;;;;;;5172200;27;13718;-69
2023/03/01 04:22:36;;;;;;;;;9.20;5.20;;;;;;;;5172002;27;13293;-68
2023/03/01 04:25:02;;;;;;;;;7.25;5.00;;;;;;;;5171978;27;13284;-68
2023/03/01 04:27:27;;;;;;;;;4.00;4.00;;;;;;;;5153168;27;13901;-68
2023/03/01 04:29:52;;;;;;;;;6.00;5.00;;;;;;;;5171729;27;14073;-69
2023/03/01 04:32:18;;;;;;;;;7.50;5.25;;;;;;;;5152987;27;14251;-68
2023/03/01 04:34:43;;;;;;;;;6.00;6.00;;;;;;;;5171809;27;13277;-69
2023/03/01 04:37:09;;;;;;;;;11.00;5.25;;;;;;;;5171606;27;14944;-69
2023/03/01 04:39:45;;;;;;;;;9.00;6.00;;;;;;;;5171589;27;13323;-69
2023/03/01 04:42:10;;;;;;;;;9.80;5.00;;;;;;;;5171272;27;13302;-68
2023/03/01 04:44:35;;;;;;;;;4.00;4.00;;;;;;;;5171305;27;13426;-69
2023/03/01 04:47:00;;;;;;;;;5.67;5.67;;;;;;;;5171554;27;13284;-69
2023/03/01 04:49:26;;;;;;;;;4.00;2.00;;;;;;;;5152263;27;13355;-69
2023/03/01 04:51:51;;;;;;;;;8.00;5.00;;;;;;;;5171348;27;13302;-69
2023/03/01 04:54:16;;;;;;;;;6.00;4.00;;;;;;;;5152566;27;13454;-69
2023/03/01 04:56:41;;;;;;;;;6.00;4.25;;;;;;;;5171472;27;13536;-69
2023/03/01 04:59:08;;;;;;;;;8.00;5.75;;;;;;;;5171153;27;13259;-68
2023/03/01 05:01:35;;;;;;;;;8.00;4.00;;;;;;;;5171302;27;13290;-68
2023/03/01 05:04:02;;;;;;;;;9.40;5.00;;;;;;;;5170699;27;13488;-68
2023/03/01 05:06:28;;;;;;;;;6.80;6.80;;;;;;;;5170473;27;13283;-68
2023/03/01 05:08:53;;;;;;;;;8.00;5.00;;;;;;;;5170926;27;14060;-68
2023/03/01 05:11:19;;;;;;;;;8.00;6.00;;;;;;;;5170530;27;14054;-68
2023/03/01 05:13:44;;;;;;;;;6.50;4.00;;;;;;;;5170864;27;13306;-68
2023/03/01 05:16:10;;;;;;;;;5.75;5.75;;;;;;;;5151543;27;13382;-67
2023/03/01 05:18:36;;;;;;;;;4.00;4.00;;;;;;;;5170442;27;13331;-67
2023/03/01 05:21:03;;;;;;;;;7.60;6.00;;;;;;;;5171021;27;13374;-68
2023/03/01 05:23:29;;;;;;;;;4.00;4.00;;;;;;;;5170419;27;13361;-68
2023/03/01 05:25:57;;;;;;;;;4.75;4.00;;;;;;;;5170642;27;14077;-68
2023/03/01 05:28:22;;;;;;;;;5.50;5.50;;;;;;;;5170512;27;13409;-68
2023/03/01 05:30:47;;;;;;;;;5.33;4.33;;;;;;;;5170500;27;13402;-68
2023/03/01 05:33:15;;;;;;;;;5.00;5.00;;;;;;;;5170675;27;13275;-68
2023/03/01 05:35:42;;;;;;;;;5.75;4.00;;;;;;;;5170657;27;13284;-69
2023/03/01 05:38:07;;;;;;;;;6.00;5.00;;;;;;;;5151840;27;14157;-69
2023/03/01 05:40:33;;;;;;;;;4.75;4.75;;;;;;;;5170236;27;13280;-72
2023/03/01 05:42:59;;;;;;;;;6.40;6.40;;;;;;;;5151242;27;13158;-68
2023/03/01 05:45:24;;;;;;;;;8.25;6.50;;;;;;;;5170391;27;13327;-70
2023/03/01 05:47:50;;;;;;;;;8.00;7.50;;;;;;;;5170095;27;14141;-68
2023/03/01 05:50:20;;;;;;;;;5.00;5.00;;;;;;;;5170036;27;13399;-70
2023/03/01 05:52:50;;;;;;;;;7.00;6.00;;;;;;;;5169645;27;13294;-69
2023/03/01 05:55:16;;;;;;;;;8.60;5.00;;;;;;;;5169950;27;13288;-70
2023/03/01 05:57:42;;;;;;;;;9.00;8.50;;;;;;;;5169993;27;13392;-73
2023/03/01 06:00:07;;;;;;;;;5.00;5.00;;;;;;;;5170093;27;13460;-70
2023/03/01 06:02:33;;;;;;;;;9.50;7.50;;;;;;;;5169803;27;13299;-71
2023/03/01 06:04:58;;;;;;;;;7.50;6.00;;;;;;;;5169783;27;13288;-70
2023/03/01 06:07:23;;;;;;;;;9.00;5.00;;;;;;;;5169904;27;13415;-72
2023/03/01 06:09:49;;;;;;;;;7.50;7.50;;;;;;;;5169617;27;14025;-71
2023/03/01 06:12:15;;;;;;;;;8.00;7.00;;;;;;;;5170117;27;13335;-71
2023/03/01 06:14:40;;;;;;;;;5.60;4.20;;;;;;;;5169792;27;13646;-71
2023/03/01 06:17:05;;;;;;;;;7.00;6.25;;;;;;;;5169678;27;13375;-71
2023/03/01 06:19:31;;;;;;;;;8.25;7.00;;;;;;;;5168630;27;14151;-70
2023/03/01 06:21:56;;;;;;;;;8.00;8.00;;;;;;;;5169139;27;13289;-71
2023/03/01 06:24:21;;;;;;;;;7.00;7.00;;;;;;;;5168959;27;13456;-70
2023/03/01 06:26:46;;;;;;;;;8.00;8.00;;;;;;;;5168648;27;14085;-71
2023/03/01 06:29:12;;;;;;;;;7.25;6.25;;;;;;;;5169000;27;14084;-70
2023/03/01 06:31:37;;;;;;;;;6.50;6.50;;;;;;;;5168283;27;13383;-69
2023/03/01 06:34:02;;;;;;;;;8.00;8.00;;;;;;;;5158803;27;13419;-70
2023/03/01 06:36:28;;;;;;;;;12.25;11.00;;;;;;;;5142545;27;13432;-68
2023/03/01 06:38:53;;;;;;;;;7.00;7.00;;;;;;;;5168805;27;13302;-68
2023/03/01 06:41:18;;;;;;;;;7.00;7.00;;;;;;;;5163097;27;14076;-69
2023/03/01 06:43:43;;;;;;;;;5.33;5.00;;;;;;;;5147326;27;13370;-68
2023/03/01 06:46:09;;;;;;;;;9.00;6.00;;;;;;;;5148399;27;13417;-67
2023/03/01 06:48:34;;;;;;;;;5.67;5.67;;;;;;;;5148170;27;14140;-68
2023/03/01 06:51:00;;;;;;;;;8.75;6.50;;;;;;;;5148233;27;13321;-67
2023/03/01 06:53:26;;;;;;;;;7.00;7.00;;;;;;;;5148669;27;13486;-70
2023/03/01 06:55:58;;;;;;;;;8.00;8.00;;;;;;;;5147760;27;14018;-67
2023/03/01 06:58:24;;;;;;;;;10.00;9.00;;;;;;;;5163519;27;13323;-68
2023/03/01 07:00:49;;;;;;;;;7.50;6.00;;;;;;;;5168061;27;13340;-68
2023/03/01 07:03:14;;;;;;;;;8.00;7.33;;;;;;;;5165137;27;13356;-68
2023/03/01 07:05:40;;;;;;;;;10.00;9.00;;;;;;;;5150395;27;13340;-67
2023/03/01 07:08:05;;;;;;;;;9.00;6.00;;;;;;;;5172509;27;14017;-67
2023/03/01 07:10:30;;;;;;;;;11.33;8.00;;;;;;;;5171529;27;13312;-67
2023/03/01 07:12:58;;;;;;;;;8.00;8.00;;;;;;;;5172277;27;13316;-67
2023/03/01 07:15:24;;;;;;;;;9.40;8.00;;;;;;;;5171933;27;13325;-67
2023/03/01 07:17:50;;;;;;;;;8.00;6.50;;;;;;;;5172076;27;13314;-67
2023/03/01 07:20:16;;;;;;;;;8.00;6.00;;;;;;;;5172460;27;13463;-67
2023/03/01 07:22:42;;;;;;;;;7.00;7.00;;;;;;;;5172624;27;13416;-69
2023/03/01 07:25:07;;;;;;;;;6.00;6.00;;;;;;;;5173114;27;14060;-67
2023/03/01 07:27:32;;;;;;;;;10.00;6.50;;;;;;;;5172571;27;13314;-67
2023/03/01 07:29:58;;;;;;;;;12.00;8.00;;;;;;;;5171042;27;13345;-67
2023/03/01 07:32:23;;;;;;;;;10.50;8.25;;;;;;;;5170443;27;13347;-67
2023/03/01 07:34:48;;;;;;;;;8.67;6.00;;;;;;;;5170191;27;13600;-65
2023/03/01 07:37:13;;;;;;;;;9.00;9.00;;;;;;;;5170954;27;13491;-64
2023/03/01 07:39:39;;;;;;;;;8.00;7.33;;;;;;;;5170734;27;13280;-66
2023/03/01 07:42:04;;;;;;;;;11.25;9.00;;;;;;;;5168368;27;13299;-69
2023/03/01 07:44:29;;;;;;;;;9.50;5.25;;;;;;;;5036372;28;13435;-69
2023/03/01 07:46:56;;;;;;;;;12.00;8.00;;;;;;;;5095987;28;14194;-69
2023/03/01 07:49:21;;;;;;;;;8.75;7.75;;;;;;;;5086824;28;14122;-68
2023/03/01 07:51:47;;;;;;;;;16.75;16.00;;;;;;;;5087895;28;14040;-69
2023/03/01 07:54:12;;;;;;;;;19.00;19.00;;;;;;;;5094437;28;13346;-69
2023/03/01 07:56:37;;;;;;;;;14.50;12.00;;;;;;;;5106674;28;13462;-67
2023/03/01 07:59:02;;;;;;;;;11.33;10.00;;;;;;;;5105942;28;13558;-68
2023/03/01 08:01:28;;;;;;;;;13.00;12.00;;;;;;;;5108284;28;13428;-69
2023/03/01 08:03:53;;;;;;;;;11.75;9.00;;;;;;;;5104526;28;14962;-68
2023/03/01 08:06:18;;;;;;;;;8.00;8.00;;;;;;;;5109484;28;13488;-67
2023/03/01 08:08:43;;;;;;;;;5.00;5.00;;;;;;;;5107131;27;13438;-67
2023/03/01 08:11:11;;;;;;;;;12.75;9.25;;;;;;;;5109012;28;13384;-66
2023/03/01 08:13:36;;;;;;;;;8.25;5.75;;;;;;;;5109163;28;13415;-65
2023/03/01 08:16:05;;;;;;;;;8.25;6.00;;;;;;;;5109282;28;13382;-65
2023/03/01 08:18:31;;;;;;;;;8.75;5.75;;;;;;;;5070649;28;13469;-67
2023/03/01 08:21:00;;;;;;;;;12.00;8.00;;;;;;;;5112119;27;14065;-66
2023/03/01 08:23:26;;;;;;;;;9.00;9.00;;;;;;;;5128256;27;14009;-66
2023/03/01 08:25:52;;;;;;;;;8.00;5.67;;;;;;;;5128855;27;13203;-65
2023/03/01 08:28:18;;;;;;;;;8.00;8.00;;;;;;;;5126412;27;13251;-66
2023/03/01 08:30:43;;;;;;;;;5.00;5.00;;;;;;;;5129384;27;13279;-68
2023/03/01 08:33:08;;;;;;;;;5.00;2.67;;;;;;;;5122578;27;13303;-66
2023/03/01 08:35:33;;;;;;;;;3.50;3.50;;;;;;;;5108021;28;13243;-65
2023/03/01 08:37:59;;;;;;;;;4.67;4.67;;;;;;;;5099430;27;13292;-66
2023/03/01 08:40:24;;;;;;;;;4.00;1.33;;;;;;;;5089020;28;13263;-67
2023/03/01 08:42:49;;;;;;;;;4.75;2.00;;;;;;;;5088540;28;13328;-68
2023/03/01 08:45:18;;;;;;;;;5.00;4.00;;;;;;;;5121041;27;13979;-67
2023/03/01 08:47:44;;;;;;;;;6.00;4.00;;;;;;;;5119906;27;13303;-66
2023/03/01 08:50:09;;;;;;;;;2.00;2.00;;;;;;;;5108982;28;13260;-66
2023/03/01 08:52:35;;;;;;;;;8.00;5.00;;;;;;;;5108437;28;13239;-66
2023/03/01 08:55:01;;;;;;;;;7.67;4.00;;;;;;;;5097364;28;13405;-66
2023/03/01 08:57:26;;;;;;;;;4.00;4.00;;;;;;;;5091671;27;13323;-66
2023/03/01 08:59:52;;;;;;;;;5.00;5.00;;;;;;;;5108572;28;13213;-66
2023/03/01 09:02:18;;;;;;;;;9.00;8.00;;;;;;;;5108845;28;13223;-65
2023/03/01 09:04:43;;;;;;;;;7.40;5.00;;;;;;;;5091595;28;13277;-65
2023/03/01 09:07:09;;;;;;;;;5.40;5.40;;;;;;;;5087398;27;13880;-65
2023/03/01 09:09:35;;;;;;;;;8.00;5.67;;;;;;;;5088341;28;13362;-66
2023/03/01 09:12:00;;;;;;;;;5.50;4.50;;;;;;;;5087534;28;13444;-65
2023/03/01 09:14:26;;;;;;;;;5.20;4.80;;;;;;;;5074164;28;13345;-66
2023/03/01 09:16:51;;;;;;;;;8.00;6.00;;;;;;;;5087733;27;13917;-66
2023/03/01 09:19:16;;;;;;;;;4.00;4.00;;;;;;;;5087766;28;13265;-66
2023/03/01 09:21:51;;;;;;;;;4.00;4.00;;;;;;;;5088296;28;13287;-66
2023/03/01 09:24:17;;;;;;;;;8.00;5.00;;;;;;;;5088159;28;13294;-67
2023/03/01 09:26:43;;;;;;;;;5.00;5.00;;;;;;;;5087480;28;13248;-67
2023/03/01 09:29:09;;;;;;;;;6.00;6.00;;;;;;;;5123631;27;13475;-66
2023/03/01 09:31:34;;;;;;;;;6.80;5.40;;;;;;;;5129077;27;13337;-65
2023/03/01 09:33:59;;;;;;;;;7.33;5.00;;;;;;;;5107030;27;14057;-65
2023/03/01 09:36:28;;;;;;;;;7.50;5.00;;;;;;;;5088107;28;13934;-65
2023/03/01 09:38:54;;;;;;;;;4.60;4.00;;;;;;;;5099162;28;14008;-65
2023/03/01 09:41:42;;;;;;;;;2.00;2.00;;;;;;;;5088136;28;13481;-65
2023/03/01 09:44:19;;;;;;;;;4.75;4.75;;;;;;;;5076259;28;13272;-65
2023/03/01 09:46:45;;;;;;;;;6.80;5.20;;;;;;;;5087734;28;13286;-65
2023/03/01 09:49:34;;;;;;;;;8.00;4.60;;;;;;;;5102651;28;13259;-65
2023/03/01 09:52:19;;;;;;;;;5.00;5.00;;;;;;;;5078776;28;13996;-65
2023/03/01 09:54:44;;;;;;;;;4.25;3.50;;;;;;;;5096426;28;13284;-65
2023/03/01 09:57:20;;;;;;;;;5.00;5.00;;;;;;;;5097598;28;14128;-65
2023/03/01 10:00:06;;;;;;;;;8.00;8.00;;;;;;;;5069448;28;13267;-66
2023/03/01 10:02:38;;;;;;;;;9.00;8.00;;;;;;;;5087216;28;13319;-66
2023/03/01 10:05:23;;;;;;;;;5.75;4.50;;;;;;;;5087134;28;13271;-65
2023/03/01 10:07:51;;;;;;;;;8.00;6.00;;;;;;;;5076512;28;13387;-64
2023/03/01 10:10:33;;;;;;;;;7.60;5.00;;;;;;;;5087624;28;13543;-64
2023/03/01 10:13:00;;;;;;;;;8.40;6.80;;;;;;;;5087572;28;13486;-65
2023/03/01 10:15:31;;;;;;;;;5.00;5.00;;;;;;;;5087290;28;13240;-65
2023/03/01 10:18:00;;;;;;;;;7.00;5.00;;;;;;;;5084887;28;13378;-68
2023/03/01 10:20:28;;;;;;;;;8.80;6.00;;;;;;;;5080886;28;14063;-67
2023/03/01 10:22:55;;;;;;;;;5.20;5.20;;;;;;;;5100892;28;14144;-67
2023/03/01 10:25:23;;;;;;;;;5.00;5.00;;;;;;;;5107493;28;13521;-68
2023/03/01 10:27:53;;;;;;;;;7.60;7.60;;;;;;;;5113505;27;13371;-67
2023/03/01 10:30:21;;;;;;;;;5.60;5.60;;;;;;;;5127700;27;14132;-66
2023/03/01 10:32:48;;;;;;;;;5.60;5.60;;;;;;;;5130275;22;13524;-67
2023/03/01 10:35:17;;;;;;;;;8.60;6.00;;;;;;;;5064791;28;13448;-67
2023/03/01 10:38:03;;;;;;;;;8.00;6.00;;;;;;;;5059092;28;13400;-69
2023/03/01 10:40:28;;;;;;;;;5.00;4.75;;;;;;;;5062475;28;13375;-67
2023/03/01 10:42:56;;;;;;;;;4.50;2.00;;;;;;;;5064491;28;14140;-68
2023/03/01 10:45:38;;;;;;;;;3.50;3.00;;;;;;;;5055423;28;13346;-67
2023/03/01 10:48:23;;;;;;;;;4.25;4.00;;;;;;;;5040955;28;13254;-70
2023/03/01 10:50:49;;;;;;;;;2.00;2.00;;;;;;;;5043020;28;13293;-68
2023/03/01 10:53:30;;;;;;;;;5.00;2.40;;;;;;;;5045043;28;13313;-69
2023/03/01 10:56:00;;;;;;;;;4.60;3.60;;;;;;;;5044367;28;13422;-69
2023/03/01 10:58:25;;;;;;;;;4.00;2.00;;;;;;;;5041430;28;14226;-69
2023/03/01 11:00:55;;;;;;;;;1.00;1.00;;;;;;;;5045033;28;13366;-70
2023/03/01 11:03:24;;;;;;;;;5.00;4.25;;;;;;;;5044567;28;13362;-69
2023/03/01 11:06:00;;;;;;;;;4.00;4.00;;;;;;;;5045195;28;13237;-68
2023/03/01 11:08:29;;;;;;;;;2.50;2.50;;;;;;;;5041150;28;13375;-69
2023/03/01 11:11:04;;;;;;;;;5.00;4.75;;;;;;;;5044600;28;13371;-69
2023/03/01 11:13:29;;;;;;;;;5.00;2.00;;;;;;;;5025167;28;13509;-69
2023/03/01 11:16:02;;;;;;;;;2.00;2.00;;;;;;;;5044743;28;13465;-68
2023/03/01 11:18:29;;;;;;;;;2.40;2.00;;;;;;;;5040491;28;13409;-69
2023/03/01 11:20:55;;;;;;;;;4.50;2.00;;;;;;;;5045011;28;13247;-69
2023/03/01 11:23:21;;;;;;;;;1.00;1.00;;;;;;;;5044480;28;13296;-68
2023/03/01 11:25:58;;;;;;;;;3.50;3.50;;;;;;;;5044944;28;13410;-69
2023/03/01 11:28:25;;;;;;;;;2.00;1.00;;;;;;;;5022913;28;14158;-68
2023/03/01 11:30:54;;;;;;;;;4.00;1.75;;;;;;;;5044261;28;13319;-69
2023/03/01 11:33:28;;;;;;;;;3.20;2.00;;;;;;;;5043870;28;13333;-69
2023/03/01 11:35:57;;;;;;;;;5.25;2.50;;;;;;;;5044716;28;13264;-69
2023/03/01 11:38:24;;;;;;;;;4.75;4.75;;;;;;;;5042490;28;13383;-68
2023/03/01 11:41:02;;;;;;;;;3.50;3.50;;;;;;;;5044430;28;13272;-70
2023/03/01 11:43:32;;;;;;;;;4.00;2.00;;;;;;;;5042620;28;13411;-69
2023/03/01 11:45:57;;;;;;;;;5.50;5.00;;;;;;;;5044472;28;13314;-69
2023/03/01 11:48:25;;;;;;;;;5.00;2.00;;;;;;;;5041902;28;14147;-68
2023/03/01 11:50:52;;;;;;;;;2.00;2.00;;;;;;;;5045647;28;13328;-69
2023/03/01 11:53:29;;;;;;;;;4.75;4.75;;;;;;;;5048004;28;13344;-69
2023/03/01 11:56:06;;;;;;;;;4.25;4.00;;;;;;;;5046952;28;13266;-67
2023/03/01 11:59:04;;;;;;;;;4.00;4.00;;;;;;;;5044509;28;13297;-68
2023/03/01 12:01:39;;;;;;;;;2.50;2.50;;;;;;;;5029968;28;13334;-69
2023/03/01 12:04:26;;;;;;;;;4.00;4.00;;;;;;;;5044935;28;13317;-67
2023/03/01 12:06:57;;;;;;;;;5.25;5.25;;;;;;;;5045921;28;13302;-67
2023/03/01 12:09:25;;;;;;;;;6.00;4.75;;;;;;;;5045714;28;13217;-68
2023/03/01 12:11:57;;;;;;;;;6.80;6.80;;;;;;;;5047922;28;13302;-69
2023/03/01 12:14:25;;;;;;;;;11.00;7.60;;;;;;;;5047447;28;14028;-68
2023/03/01 12:16:53;;;;;;;;;11.75;6.00;;;;;;;;5047464;28;13283;-67
2023/03/01 12:19:27;;;;;;;;;5.50;4.25;;;;;;;;5026845;28;13451;-68
2023/03/01 12:22:11;;;;;;;;;4.25;4.00;;;;;;;;5045722;28;13598;-69
2023/03/01 12:24:48;;;;;;;;;6.25;5.00;;;;;;;;5029829;28;14001;-68
2023/03/01 12:27:32;;;;;;;;;5.60;2.00;;;;;;;;5044278;28;13486;-69
2023/03/01 12:30:05;;;;;;;;;3.75;2.00;;;;;;;;5046207;28;13422;-70
2023/03/01 12:32:30;;;;;;;;;4.25;2.00;;;;;;;;5045020;28;13283;-70
2023/03/01 12:35:08;;;;;;;;;7.00;5.00;;;;;;;;5047238;28;13300;-69
2023/03/01 12:38:00;;;;;;;;;5.00;4.00;;;;;;;;5044336;28;13496;-68
2023/03/01 12:40:48;;;;;;;;;5.80;4.00;;;;;;;;5044852;28;13506;-67
2023/03/01 12:43:14;;;;;;;;;4.00;4.00;;;;;;;;5026044;28;13309;-68
2023/03/01 12:46:02;;;;;;;;;1.00;1.00;;;;;;;;5047195;28;14029;-68
2023/03/01 12:48:35;;;;;;;;;1.00;1.00;;;;;;;;5042717;28;13295;-68
2023/03/01 12:51:05;;;;;;;;;1.00;1.00;;;;;;;;5046814;28;13404;-68
2023/03/01 12:53:34;;;;;;;;;2.00;2.00;;;;;;;;5045228;28;13288;-68
2023/03/01 12:56:09;;;;;;;;;4.00;2.00;;;;;;;;5047082;28;13270;-69
2023/03/01 12:58:53;;;;;;;;;4.00;4.00;;;;;;;;5044022;28;13274;-67
2023/03/01 13:01:19;;;;;;;;;4.00;1.00;;;;;;;;5045488;28;13284;-69
2023/03/01 13:03:44;;;;;;;;;1.75;1.75;;;;;;;;5046542;28;13293;-68
2023/03/01 13:06:17;;;;;;;;;4.75;4.75;;;;;;;;5046859;28;14116;-68
2023/03/01 13:08:46;;;;;;;;;1.80;1.80;;;;;;;;5045112;28;14257;-68
2023/03/01 13:11:19;;;;;;;;;3.00;3.00;;;;;;;;5028630;28;13424;-69
2023/03/01 13:13:46;;;;;;;;;2.00;2.00;;;;;;;;5046789;28;14125;-68
2023/03/01 13:16:29;;;;;;;;;2.00;1.00;;;;;;;;5047333;28;13253;-69
2023/03/01 13:19:15;;;;;;;;;1.20;1.20;;;;;;;;5029279;28;13261;-69
2023/03/01 13:21:41;;;;;;;;;1.25;1.25;;;;;;;;5046579;28;13433;-69
2023/03/01 13:24:27;;;;;;;;;1.80;1.80;;;;;;;;5047246;28;13273;-68
2023/03/01 13:27:08;;;;;;;;;2.00;2.00;;;;;;;;5045848;28;13382;-70
2023/03/01 13:29:45;;;;;;;;;1.00;1.00;;;;;;;;5029076;28;14681;-71
2023/03/01 13:32:28;;;;;;;;;1.00;1.00;;;;;;;;5046884;28;13272;-67
2023/03/01 13:35:12;;;;;;;;;4.00;4.00;;;;;;;;5046567;28;13300;-68
2023/03/01 13:37:37;;;;;;;;;4.00;1.80;;;;;;;;5045579;28;13303;-69
2023/03/01 13:40:29;;;;;;;;;6.50;3.50;;;;;;;;5045458;28;13332;-68
2023/03/01 13:42:55;;;;;;;;;1.00;1.00;;;;;;;;5022340;28;13433;-69
2023/03/01 13:45:35;;;;;;;;;4.75;1.75;;;;;;;;5027716;28;14106;-69
2023/03/01 13:48:04;;;;;;;;;1.00;1.00;;;;;;;;5046626;28;13173;-71
2023/03/01 13:50:33;;;;;;;;;0.75;0.75;;;;;;;;5033713;28;13445;-70
2023/03/01 13:53:00;;;;;;;;;4.00;4.00;;;;;;;;5050620;28;13242;-69
2023/03/01 13:55:25;;;;;;;;;2.00;2.00;;;;;;;;5045650;28;14165;-71
2023/03/01 13:57:55;;;;;;;;;1.25;1.00;;;;;;;;5045312;28;13524;-73
2023/03/01 14:00:26;;;;;;;;;1.00;1.00;;;;;;;;5045651;28;14230;-72
2023/03/01 14:03:10;;;;;;;;;4.00;4.00;;;;;;;;5048686;28;13362;-72
2023/03/01 14:05:36;;;;;;;;;2.50;2.50;;;;;;;;5053218;28;13500;-69
2023/03/01 14:08:03;;;;;;;;;1.00;1.00;;;;;;;;5055722;28;14261;-72
2023/03/01 14:10:35;;;;;;;;;0.20;0.20;;;;;;;;5060609;28;13371;-71
2023/03/01 14:13:18;;;;;;;;;1.75;1.75;;;;;;;;5055364;28;13412;-72
2023/03/01 14:16:07;;;;;;;;;2.00;2.00;;;;;;;;5054578;28;13741;-72
2023/03/01 14:18:38;;;;;;;;;2.00;2.00;;;;;;;;5040135;28;13402;-73
2023/03/01 14:21:07;;;;;;;;;2.00;2.00;;;;;;;;5054794;28;13248;-72
2023/03/01 14:23:35;;;;;;;;;1.50;1.50;;;;;;;;5052523;28;13417;-72
2023/03/01 14:26:00;;;;;;;;;4.25;4.25;;;;;;;;5055213;28;13252;-72
2023/03/01 14:28:27;;;;;;;;;3.00;3.00;;;;;;;;5056424;28;13299;-71
2023/03/01 14:30:54;;;;;;;;;3.00;3.00;;;;;;;;5051993;28;13444;-70
2023/03/01 14:33:19;;;;;;;;;2.00;2.00;;;;;;;;5055239;28;13428;-71
2023/03/01 14:35:51;;;;;;;;;4.75;4.75;;;;;;;;5055724;28;14156;-72
2023/03/01 14:38:20;;;;;;;;;4.00;1.40;;;;;;;;5053106;28;13499;-71
2023/03/01 14:40:48;;;;;;;;;2.00;2.00;;;;;;;;5066010;28;13962;-73
2023/03/01 14:43:17;;;;;;;;;2.00;2.00;;;;;;;;5066038;28;13247;-71
2023/03/01 14:45:47;;;;;;;;;1.00;1.00;;;;;;;;5065491;28;13199;-70